Terminal Aerodrome Forecast
Issued by NWS

Home | Current Version | Previous Version | Text Only | Print | Product List | Glossary Off
Versions: 1 2 3 4 5 6 7 8 9 10 11 12 13 14 15 16

000
FTUS43 KICT 220254 AAC
TAFCNU
TAF AMD
KCNU 220254Z 2203/2224 02012KT P6SM -SHRA OVC020
      TEMPO 2203/2206 2SM SHRA OVC007
     FM220600 01014KT 6SM -SHRA OVC020
     FM221200 02015G24KT P6SM VCSH OVC020
     FM221900 01014KT P6SM OVC035=

USA.gov is the U.S. government's official web portal to all federal, state and local government web resources and services.